METAR Data
IDs: Format: Raw Decoded Include TAF

Data at: 0406 UTC 14 Dec 2018

KORS 140355Z AUTO 17014G20KT 10SM OVC075 11/06 A2983 RMK AO2